createdAt,value
2023-03-29T00:00:14.095Z,1.40
2023-03-29T00:02:42.003Z,1.55
2023-03-29T00:05:09.617Z,1.40
2023-03-29T00:07:36.873Z,1.55
2023-03-29T00:10:04.791Z,1.45
2023-03-29T00:12:32.312Z,1.40
2023-03-29T00:14:59.645Z,1.52
2023-03-29T00:17:26.930Z,1.63
2023-03-29T00:19:54.278Z,1.67
2023-03-29T00:22:22.007Z,1.40
2023-03-29T00:24:49.476Z,1.47
2023-03-29T00:27:16.812Z,1.30
2023-03-29T00:29:44.223Z,1.38
2023-03-29T00:32:11.538Z,1.55
2023-03-29T00:34:38.922Z,1.80
2023-03-29T00:37:09.326Z,1.50
2023-03-29T00:39:36.897Z,1.38
2023-03-29T00:42:04.176Z,1.50
2023-03-29T00:44:53.225Z,1.45
2023-03-29T00:47:30.258Z,1.63
2023-03-29T00:50:03.286Z,1.70
2023-03-29T00:52:32.126Z,1.73
2023-03-29T00:55:01.582Z,2.10
2023-03-29T00:57:30.125Z,2.20
2023-03-29T00:59:57.573Z,2.03
2023-03-29T01:02:26.182Z,1.67
2023-03-29T01:05:15.159Z,2.22
2023-03-29T01:07:48.123Z,2.00
2023-03-29T01:10:42.681Z,2.00
2023-03-29T01:13:39.409Z,1.88
2023-03-29T01:16:08.327Z,1.80
2023-03-29T01:18:35.728Z,1.75
2023-03-29T01:21:23.553Z,1.88
2023-03-29T01:23:58.374Z,2.10
2023-03-29T01:26:34.060Z,2.05
2023-03-29T01:29:25.842Z,2.30
2023-03-29T01:31:57.917Z,2.13
2023-03-29T01:34:44.767Z,2.08
2023-03-29T01:37:25.023Z,2.33
2023-03-29T01:39:52.535Z,2.40
2023-03-29T01:42:22.938Z,2.00
2023-03-29T01:45:09.941Z,2.58
2023-03-29T01:47:55.203Z,2.10
2023-03-29T01:50:45.292Z,1.95
2023-03-29T01:53:35.751Z,2.13
2023-03-29T01:56:07.816Z,1.73
2023-03-29T01:58:38.335Z,2.28
2023-03-29T02:01:10.001Z,1.80
2023-03-29T02:03:42.567Z,1.98
2023-03-29T02:06:11.256Z,2.13
2023-03-29T02:08:39.471Z,1.73
2023-03-29T02:11:07.714Z,1.75
2023-03-29T02:13:35.893Z,1.85
2023-03-29T02:16:12.200Z,1.60
2023-03-29T02:18:41.227Z,1.95
2023-03-29T02:21:08.548Z,2.27
2023-03-29T02:23:41.157Z,2.20
2023-03-29T02:26:08.961Z,1.83
2023-03-29T02:28:36.236Z,2.50
2023-03-29T02:31:26.173Z,2.05
2023-03-29T02:34:00.916Z,2.20
2023-03-29T02:36:46.789Z,2.30
2023-03-29T02:39:15.747Z,2.42
2023-03-29T02:41:45.218Z,2.13
2023-03-29T02:44:14.197Z,3.28
2023-03-29T02:46:43.944Z,3.67
2023-03-29T02:49:12.547Z,2.65
2023-03-29T02:51:39.855Z,3.40
2023-03-29T02:54:13.362Z,2.88
2023-03-29T02:56:45.070Z,2.85
2023-03-29T02:59:12.679Z,3.33
2023-03-29T03:01:42.839Z,3.40
2023-03-29T03:04:10.235Z,3.35
2023-03-29T03:06:40.410Z,3.50
2023-03-29T03:09:10.591Z,3.72
2023-03-29T03:11:41.016Z,4.10
2023-03-29T03:14:08.493Z,4.28
2023-03-29T03:16:37.114Z,4.00
2023-03-29T03:19:04.702Z,3.45
2023-03-29T03:21:31.966Z,3.45
2023-03-29T03:24:00.349Z,3.33
2023-03-29T03:26:30.334Z,3.20
2023-03-29T03:28:58.318Z,4.20
2023-03-29T03:31:59.304Z,3.92
2023-03-29T03:34:55.478Z,4.38
2023-03-29T03:37:25.504Z,4.33
2023-03-29T03:39:53.608Z,4.22
2023-03-29T03:42:21.611Z,4.22
2023-03-29T03:44:49.808Z,5.07
2023-03-29T03:47:43.292Z,4.75
2023-03-29T03:50:23.091Z,5.13
2023-03-29T03:52:50.375Z,5.22
2023-03-29T03:55:17.860Z,5.25
2023-03-29T03:57:52.622Z,5.22
2023-03-29T04:00:21.414Z,5.30
2023-03-29T04:03:08.854Z,4.80
2023-03-29T04:05:44.614Z,5.35
2023-03-29T04:08:12.608Z,5.05
2023-03-29T04:11:07.444Z,4.85
2023-03-29T04:13:37.744Z,5.25
2023-03-29T04:16:34.098Z,5.67
2023-03-29T04:19:16.237Z,5.97
2023-03-29T04:21:46.133Z,5.18
2023-03-29T04:24:13.630Z,4.25
2023-03-29T04:26:44.659Z,5.32
2023-03-29T04:29:19.529Z,4.60
2023-03-29T04:31:51.000Z,4.72
2023-03-29T04:34:47.482Z,6.97
2023-03-29T04:37:16.395Z,8.68
2023-03-29T04:39:44.824Z,12.45
2023-03-29T04:42:13.978Z,11.27
2023-03-29T04:44:43.528Z,11.35
2023-03-29T04:47:13.280Z,10.00
2023-03-29T04:50:08.230Z,7.78
2023-03-29T04:52:41.478Z,7.10
2023-03-29T04:55:09.379Z,7.90
2023-03-29T04:57:50.341Z,7.18
2023-03-29T05:00:21.290Z,6.80
2023-03-29T05:03:14.701Z,8.13
2023-03-29T05:06:06.697Z,8.57
2023-03-29T05:08:35.574Z,10.17
2023-03-29T05:11:13.620Z,9.05
2023-03-29T05:13:42.619Z,9.68
2023-03-29T05:16:11.204Z,10.18
2023-03-29T05:18:39.571Z,10.15
2023-03-29T05:21:07.638Z,10.73
2023-03-29T05:23:36.562Z,10.52
2023-03-29T05:26:32.636Z,10.88
2023-03-29T05:28:59.953Z,11.80
2023-03-29T05:31:28.294Z,10.88
2023-03-29T05:33:56.686Z,10.13
2023-03-29T05:36:24.834Z,9.88
2023-03-29T05:38:52.260Z,9.75
2023-03-29T05:41:21.527Z,10.30
2023-03-29T05:44:03.618Z,10.23
2023-03-29T05:46:31.859Z,12.40
2023-03-29T05:49:02.989Z,11.05
2023-03-29T05:52:02.504Z,12.38
2023-03-29T05:54:31.577Z,9.07
2023-03-29T05:56:59.676Z,7.50
2023-03-29T05:59:28.670Z,9.60
2023-03-29T06:01:56.665Z,9.85
2023-03-29T06:04:25.420Z,10.73
2023-03-29T06:07:12.688Z,10.60
2023-03-29T06:09:44.765Z,11.02
2023-03-29T06:12:12.377Z,10.43
2023-03-29T06:14:45.657Z,9.32
2023-03-29T06:17:25.481Z,9.05
2023-03-29T06:19:53.570Z,10.02
2023-03-29T06:22:24.477Z,8.23
2023-03-29T06:24:52.225Z,8.67
2023-03-29T06:27:25.856Z,7.22
2023-03-29T06:29:54.039Z,6.65
2023-03-29T06:32:21.426Z,5.60
2023-03-29T06:34:57.702Z,4.28
2023-03-29T06:37:49.475Z,4.30
2023-03-29T06:40:23.028Z,5.97
2023-03-29T06:42:51.028Z,6.45
2023-03-29T06:45:37.286Z,5.47
2023-03-29T06:48:08.967Z,8.00
2023-03-29T06:50:38.501Z,6.57
2023-03-29T06:53:11.590Z,5.55
2023-03-29T06:55:40.272Z,5.00
2023-03-29T06:58:26.178Z,5.25
2023-03-29T07:00:53.980Z,4.18
2023-03-29T07:03:30.468Z,3.55
2023-03-29T07:06:04.349Z,3.72
2023-03-29T07:08:35.234Z,3.22
2023-03-29T07:11:07.198Z,1.90
2023-03-29T07:13:56.378Z,2.05
2023-03-29T07:16:24.274Z,2.30
2023-03-29T07:19:25.281Z,2.60
2023-03-29T07:21:55.216Z,3.03
2023-03-29T07:24:31.028Z,3.45
2023-03-29T07:27:04.273Z,3.10
2023-03-29T07:29:33.206Z,2.90
2023-03-29T07:32:00.967Z,3.10
2023-03-29T07:34:43.392Z,3.13
2023-03-29T07:37:19.281Z,2.90
2023-03-29T07:39:47.337Z,2.90
2023-03-29T07:42:32.030Z,3.40
2023-03-29T07:45:00.041Z,2.78
2023-03-29T07:47:33.153Z,3.28
2023-03-29T07:50:00.942Z,3.13
2023-03-29T07:52:30.013Z,3.45
2023-03-29T07:54:58.078Z,3.30
2023-03-29T07:57:32.949Z,2.97
2023-03-29T08:00:00.476Z,3.38
2023-03-29T08:02:44.703Z,3.40
2023-03-29T08:05:13.715Z,3.80
2023-03-29T08:07:52.320Z,3.47
2023-03-29T08:10:27.915Z,3.42
2023-03-29T08:13:09.897Z,3.75
2023-03-29T08:15:48.776Z,3.40
2023-03-29T08:18:35.866Z,3.38
2023-03-29T08:21:05.069Z,3.60
2023-03-29T08:23:32.828Z,3.63
2023-03-29T08:26:26.746Z,3.70
2023-03-29T08:28:55.462Z,3.55
2023-03-29T08:31:24.240Z,3.65
2023-03-29T08:33:53.266Z,3.42
2023-03-29T08:36:40.343Z,3.47
2023-03-29T08:39:26.022Z,3.42
2023-03-29T08:42:38.132Z,3.17
2023-03-29T08:45:15.497Z,3.10
2023-03-29T08:48:21.256Z,2.33
2023-03-29T08:51:01.711Z,2.70
2023-03-29T08:53:35.666Z,2.70
2023-03-29T08:56:16.949Z,2.75
2023-03-29T08:59:02.623Z,2.50
2023-03-29T09:01:35.402Z,2.88
2023-03-29T09:04:18.954Z,2.85
2023-03-29T09:07:09.445Z,2.40
2023-03-29T09:09:42.289Z,3.00
2023-03-29T09:12:26.165Z,2.65
2023-03-29T09:14:59.313Z,2.58
2023-03-29T09:17:32.602Z,2.13
2023-03-29T09:20:21.981Z,2.33
2023-03-29T09:23:10.627Z,2.03
2023-03-29T09:26:10.024Z,1.70
2023-03-29T09:29:07.121Z,2.10
2023-03-29T09:31:39.141Z,1.88
2023-03-29T09:34:19.814Z,2.05
2023-03-29T09:37:11.269Z,2.55
2023-03-29T09:39:41.078Z,2.03
2023-03-29T09:42:12.742Z,1.85
2023-03-29T09:44:57.341Z,1.80
2023-03-29T09:47:43.545Z,2.03
2023-03-29T09:50:29.692Z,1.67
2023-03-29T09:52:59.637Z,1.60
2023-03-29T09:55:30.441Z,1.60
2023-03-29T09:58:14.366Z,1.27
2023-03-29T10:00:46.185Z,1.60
2023-03-29T10:03:21.229Z,1.50
2023-03-29T10:06:02.815Z,1.33
2023-03-29T10:08:35.721Z,1.25
2023-03-29T10:11:09.629Z,1.60
2023-03-29T10:13:37.245Z,1.70
2023-03-29T10:16:07.377Z,1.08
2023-03-29T10:18:43.926Z,1.00
2023-03-29T10:21:15.814Z,0.77
2023-03-29T10:23:43.915Z,0.93
2023-03-29T10:26:25.193Z,1.10
2023-03-29T10:28:53.974Z,0.90
2023-03-29T10:31:22.405Z,1.35
2023-03-29T10:33:57.487Z,1.00
2023-03-29T10:36:30.780Z,1.20
2023-03-29T10:38:59.288Z,1.05
2023-03-29T10:41:27.332Z,1.00
2023-03-29T10:43:54.596Z,0.90
2023-03-29T10:46:23.606Z,1.13
2023-03-29T10:48:52.609Z,0.80
2023-03-29T10:51:19.878Z,0.98
2023-03-29T10:53:47.633Z,0.80
2023-03-29T10:56:33.422Z,0.88
2023-03-29T10:59:18.944Z,1.05
2023-03-29T11:02:14.294Z,0.90
2023-03-29T11:04:59.245Z,0.80
2023-03-29T11:07:29.834Z,1.00
2023-03-29T11:10:03.276Z,1.00
2023-03-29T11:13:08.583Z,0.90
2023-03-29T11:16:00.891Z,0.70
2023-03-29T11:19:09.270Z,0.80
2023-03-29T11:21:51.173Z,0.68
2023-03-29T11:24:30.509Z,0.95
2023-03-29T11:27:00.438Z,0.80
2023-03-29T11:29:30.624Z,0.80
2023-03-29T11:31:57.784Z,1.00
2023-03-29T11:34:25.356Z,0.90
2023-03-29T11:37:11.267Z,0.90
2023-03-29T11:39:41.713Z,0.82
2023-03-29T11:42:20.786Z,0.80
2023-03-29T11:44:48.452Z,1.10
2023-03-29T11:47:18.984Z,0.90
2023-03-29T11:49:54.567Z,1.10
2023-03-29T11:52:51.526Z,0.90
2023-03-29T11:55:19.617Z,0.90
2023-03-29T11:57:52.877Z,0.80
2023-03-29T12:00:37.748Z,0.85
2023-03-29T12:03:28.476Z,0.70
2023-03-29T12:06:08.475Z,0.60
2023-03-29T12:08:40.355Z,0.90
2023-03-29T12:11:08.858Z,0.70
2023-03-29T12:13:45.166Z,0.70
2023-03-29T12:16:24.221Z,0.70
2023-03-29T12:18:54.535Z,0.70
2023-03-29T12:21:23.916Z,0.70
2023-03-29T12:23:52.711Z,0.70
2023-03-29T12:26:56.332Z,0.80
2023-03-29T12:29:51.089Z,0.90
2023-03-29T12:32:43.862Z,0.90
2023-03-29T12:35:34.358Z,1.00
2023-03-29T12:38:27.098Z,0.73
2023-03-29T12:41:21.752Z,0.80
2023-03-29T12:44:11.633Z,0.65
2023-03-29T12:47:03.044Z,0.77
2023-03-29T12:49:36.497Z,0.90
2023-03-29T12:52:23.317Z,0.98
2023-03-29T12:54:59.710Z,1.13
2023-03-29T12:57:44.633Z,1.00
2023-03-29T13:00:27.507Z,0.88
2023-03-29T13:03:03.810Z,0.97
2023-03-29T13:05:35.236Z,1.20
2023-03-29T13:08:38.804Z,1.20
2023-03-29T13:11:06.560Z,1.38
2023-03-29T13:13:37.425Z,1.20
2023-03-29T13:16:12.472Z,1.23
2023-03-29T13:19:03.112Z,1.00
2023-03-29T13:21:56.042Z,1.20
2023-03-29T13:24:23.223Z,1.00
2023-03-29T13:27:04.352Z,1.40
2023-03-29T13:29:55.748Z,1.50
2023-03-29T13:32:55.419Z,1.42
2023-03-29T13:35:44.508Z,1.27
2023-03-29T13:38:19.697Z,1.10
2023-03-29T13:41:01.489Z,1.40
2023-03-29T13:43:44.616Z,1.00
2023-03-29T13:46:34.938Z,1.35
2023-03-29T13:49:17.666Z,1.65
2023-03-29T13:52:08.975Z,1.40
2023-03-29T13:54:42.773Z,1.27
2023-03-29T13:57:17.243Z,1.60
2023-03-29T13:59:55.725Z,1.40
2023-03-29T14:02:31.661Z,1.08
2023-03-29T14:05:00.055Z,0.90
2023-03-29T14:07:27.422Z,1.00
2023-03-29T14:09:55.084Z,1.00
2023-03-29T14:12:22.355Z,0.75
2023-03-29T14:14:58.731Z,0.82
2023-03-29T14:17:26.815Z,1.10
2023-03-29T14:19:54.049Z,0.82
2023-03-29T14:22:21.506Z,0.93
2023-03-29T14:24:53.232Z,1.13
2023-03-29T14:27:21.370Z,0.82
2023-03-29T14:29:49.809Z,1.10
2023-03-29T14:32:19.003Z,1.20
2023-03-29T14:34:49.872Z,1.20
2023-03-29T14:37:26.265Z,1.20
2023-03-29T14:39:53.692Z,1.00
2023-03-29T14:42:24.287Z,1.10
2023-03-29T14:44:51.777Z,1.15
2023-03-29T14:47:26.133Z,1.13
2023-03-29T14:49:56.091Z,1.00
2023-03-29T14:52:23.620Z,1.10
2023-03-29T14:54:52.573Z,0.88
2023-03-29T14:57:19.789Z,1.10
2023-03-29T14:59:54.823Z,1.37
2023-03-29T15:02:30.007Z,1.40
2023-03-29T15:04:59.190Z,1.63
2023-03-29T15:07:27.302Z,1.55
2023-03-29T15:09:55.814Z,1.60
2023-03-29T15:12:23.164Z,1.63
2023-03-29T15:14:51.592Z,1.50
2023-03-29T15:17:47.693Z,1.98
2023-03-29T15:20:53.298Z,1.70
2023-03-29T15:23:22.535Z,1.60
2023-03-29T15:25:58.535Z,1.50
2023-03-29T15:28:31.085Z,1.60
2023-03-29T15:33:35.871Z,1.60
2023-03-29T15:36:04.049Z,1.70
2023-03-29T15:38:42.628Z,1.60
2023-03-29T15:41:13.409Z,1.42
2023-03-29T15:43:41.418Z,1.60
2023-03-29T15:46:11.603Z,3.15
2023-03-29T15:48:38.906Z,1.90
2023-03-29T15:51:06.905Z,1.90
2023-03-29T15:53:35.627Z,1.67
2023-03-29T15:56:04.105Z,1.60
2023-03-29T15:58:31.922Z,2.30
2023-03-29T16:01:23.644Z,1.73
2023-03-29T16:03:51.349Z,2.27
2023-03-29T16:06:18.693Z,2.08
2023-03-29T16:08:46.195Z,1.90
2023-03-29T16:11:13.466Z,1.80
2023-03-29T16:13:40.818Z,2.22
2023-03-29T16:16:10.696Z,1.80
2023-03-29T16:18:38.072Z,1.67
2023-03-29T16:21:06.373Z,1.70
2023-03-29T16:23:33.623Z,2.15
2023-03-29T16:26:01.300Z,1.90
2023-03-29T16:28:28.698Z,1.70
2023-03-29T16:30:55.918Z,2.33
2023-03-29T16:33:23.182Z,2.00
2023-03-29T16:35:50.664Z,1.80
2023-03-29T16:38:17.974Z,1.70
2023-03-29T16:40:45.236Z,1.77
2023-03-29T16:43:16.196Z,2.05
2023-03-29T16:45:43.482Z,1.98
2023-03-29T16:48:18.064Z,2.08
2023-03-29T16:50:49.459Z,1.80
2023-03-29T16:53:18.615Z,2.00
2023-03-29T16:55:46.797Z,2.05
2023-03-29T16:58:15.530Z,1.95
2023-03-29T17:00:45.034Z,1.80
2023-03-29T17:03:13.865Z,1.98
2023-03-29T17:05:50.320Z,2.10
2023-03-29T17:08:18.475Z,2.63
2023-03-29T17:10:46.064Z,4.60
2023-03-29T17:13:13.370Z,3.75
2023-03-29T17:15:40.651Z,5.88
2023-03-29T17:18:08.045Z,6.23
2023-03-29T17:20:38.027Z,6.22
2023-03-29T17:23:05.325Z,4.85
2023-03-29T17:25:32.667Z,5.07
2023-03-29T17:27:59.937Z,3.75
2023-03-29T17:30:27.272Z,4.05
2023-03-29T17:32:55.264Z,3.55
2023-03-29T17:35:22.566Z,3.83
2023-03-29T17:37:49.797Z,4.20
2023-03-29T17:40:17.988Z,4.15
2023-03-29T17:42:48.762Z,3.50
2023-03-29T17:45:16.354Z,4.10
2023-03-29T17:47:43.652Z,4.28
2023-03-29T17:50:11.962Z,4.45
2023-03-29T17:52:39.715Z,4.50
2023-03-29T17:55:11.072Z,4.22
2023-03-29T17:57:39.003Z,4.60
2023-03-29T18:00:07.403Z,5.40
2023-03-29T18:02:34.764Z,4.43
2023-03-29T18:05:02.080Z,3.92
2023-03-29T18:07:29.398Z,3.63
2023-03-29T18:09:56.692Z,3.72
2023-03-29T18:12:27.708Z,6.88
2023-03-29T18:14:57.759Z,12.20
2023-03-29T18:17:26.563Z,10.32
2023-03-29T18:19:53.840Z,4.63
2023-03-29T18:22:21.624Z,10.15
2023-03-29T18:24:49.229Z,19.67
2023-03-29T18:27:17.113Z,7.68
2023-03-29T18:29:44.862Z,9.93
2023-03-29T18:32:12.305Z,3.80
2023-03-29T18:34:39.654Z,3.20
2023-03-29T18:37:07.480Z,3.03
2023-03-29T18:39:34.880Z,9.02
2023-03-29T18:42:02.234Z,9.40
2023-03-29T18:44:29.609Z,10.18
2023-03-29T18:46:56.879Z,9.93
2023-03-29T18:49:25.740Z,9.13
2023-03-29T18:51:54.368Z,8.88
2023-03-29T18:54:21.672Z,8.02
2023-03-29T18:56:48.930Z,7.97
2023-03-29T18:59:17.200Z,9.20
2023-03-29T19:01:44.595Z,8.82
2023-03-29T19:04:13.439Z,11.93
2023-03-29T19:06:41.775Z,11.40
2023-03-29T19:09:09.633Z,10.82
2023-03-29T19:11:37.002Z,15.32
2023-03-29T19:14:04.624Z,12.45
2023-03-29T19:16:32.176Z,13.18
2023-03-29T19:19:00.170Z,9.93
2023-03-29T19:21:28.996Z,11.63
2023-03-29T19:24:00.916Z,11.43
2023-03-29T19:26:33.237Z,15.13
2023-03-29T19:29:01.257Z,11.93
2023-03-29T19:31:28.651Z,9.80
2023-03-29T19:33:56.189Z,12.52
2023-03-29T19:36:24.005Z,10.70
2023-03-29T19:38:51.681Z,15.90
2023-03-29T19:41:18.976Z,16.95
2023-03-29T19:43:46.383Z,18.45
2023-03-29T19:46:15.788Z,19.27
2023-03-29T19:48:43.386Z,20.42
2023-03-29T19:51:10.841Z,19.15
2023-03-29T19:53:39.001Z,18.05
2023-03-29T19:56:07.815Z,17.10
2023-03-29T19:58:35.616Z,15.82
2023-03-29T20:01:03.186Z,17.33
2023-03-29T20:03:34.147Z,17.27
2023-03-29T20:06:01.979Z,17.77
2023-03-29T20:08:29.386Z,18.33
2023-03-29T20:10:59.916Z,17.35
2023-03-29T20:13:37.637Z,18.50
2023-03-29T20:16:10.889Z,19.08
2023-03-29T20:18:38.363Z,16.98
2023-03-29T20:21:08.915Z,14.25
2023-03-29T20:23:36.549Z,13.73
2023-03-29T20:26:03.890Z,12.57
2023-03-29T20:28:31.552Z,12.60
2023-03-29T20:31:02.924Z,13.23
2023-03-29T20:33:30.551Z,12.60
2023-03-29T20:35:58.035Z,14.18
2023-03-29T20:38:25.878Z,15.23
2023-03-29T20:40:53.617Z,15.70
2023-03-29T20:43:20.887Z,14.50
2023-03-29T20:45:54.034Z,10.93
2023-03-29T20:48:23.580Z,14.80
2023-03-29T20:50:51.399Z,15.35
2023-03-29T20:53:20.411Z,14.73
2023-03-29T20:55:47.894Z,14.88
2023-03-29T20:58:16.038Z,16.48
2023-03-29T21:00:43.790Z,16.73
2023-03-29T21:03:11.516Z,18.23
2023-03-29T21:05:39.085Z,19.48
2023-03-29T21:08:06.433Z,19.85
2023-03-29T21:10:33.778Z,16.63
2023-03-29T21:13:02.616Z,17.70
2023-03-29T21:15:31.221Z,20.30
2023-03-29T21:17:58.710Z,22.52
2023-03-29T21:20:27.575Z,20.80
2023-03-29T21:22:54.909Z,24.47
2023-03-29T21:25:22.357Z,20.80
2023-03-29T21:27:52.541Z,21.23
2023-03-29T21:30:19.832Z,21.50
2023-03-29T21:32:47.104Z,22.25
2023-03-29T21:35:14.352Z,21.57
2023-03-29T21:37:41.554Z,19.42
2023-03-29T21:40:10.736Z,20.38
2023-03-29T21:42:38.160Z,21.45
2023-03-29T21:45:05.944Z,21.30
2023-03-29T21:47:33.303Z,18.50
2023-03-29T21:50:00.543Z,17.75
2023-03-29T21:52:27.788Z,16.77
2023-03-29T21:54:55.128Z,16.23
2023-03-29T21:57:22.465Z,17.33
2023-03-29T21:59:49.808Z,18.10
2023-03-29T22:02:17.197Z,18.40
2023-03-29T22:04:44.517Z,19.50
2023-03-29T22:07:12.491Z,18.88
2023-03-29T22:09:42.350Z,20.00
2023-03-29T22:12:10.051Z,20.58
2023-03-29T22:14:37.478Z,21.42
2023-03-29T22:17:07.888Z,21.75
2023-03-29T22:19:39.150Z,21.25
2023-03-29T22:22:13.551Z,20.63
2023-03-29T22:24:42.015Z,19.63
2023-03-29T22:27:10.556Z,14.32
2023-03-29T22:29:37.927Z,13.50
2023-03-29T22:32:05.821Z,13.13
2023-03-29T22:34:33.392Z,13.55
2023-03-29T22:37:00.625Z,14.47
2023-03-29T22:39:28.578Z,16.10
2023-03-29T22:41:55.953Z,17.20
2023-03-29T22:44:23.239Z,19.58
2023-03-29T22:46:50.852Z,19.60
2023-03-29T22:49:18.089Z,19.70
2023-03-29T22:51:45.384Z,20.38
2023-03-29T22:54:12.686Z,18.80
2023-03-29T22:56:39.963Z,20.98
2023-03-29T22:59:07.289Z,17.42
2023-03-29T23:01:34.556Z,15.53
2023-03-29T23:04:01.961Z,16.85
2023-03-29T23:06:29.267Z,13.63
2023-03-29T23:08:56.512Z,13.55
2023-03-29T23:11:23.752Z,13.32
2023-03-29T23:13:51.076Z,14.27
2023-03-29T23:16:20.852Z,12.05
2023-03-29T23:18:48.356Z,11.40
2023-03-29T23:21:15.647Z,11.45
2023-03-29T23:23:43.455Z,11.10
2023-03-29T23:26:11.220Z,10.93
2023-03-29T23:28:38.475Z,9.45
2023-03-29T23:31:09.908Z,9.20
2023-03-29T23:33:41.443Z,7.85
2023-03-29T23:36:13.205Z,9.05
2023-03-29T23:38:40.531Z,11.77
2023-03-29T23:41:10.831Z,11.82
2023-03-29T23:43:40.493Z,10.13
2023-03-29T23:46:12.431Z,12.57
2023-03-29T23:48:39.729Z,10.05
2023-03-29T23:51:08.195Z,12.23
2023-03-29T23:53:35.467Z,11.77
2023-03-29T23:56:03.641Z,11.98
2023-03-29T23:58:32.765Z,12.07
